DLH61Y KORD-KOMA
Flight info
| Callsign | DLH61Y |
|---|---|
| Flight time | 1h 6m |
| Altitude | 38000 |
| Route | OLINN OREOS OBENE DSM LANTK2 |
| Aircraft | A320/M-SDE3FGHIRWY/LB1 |
Departure
| Time | 2026-04-26 04:43 |
|---|---|
| Airport | Chicago O'Hare International Airport (KORD) |
Arrival
| Time | 2026-04-26 05:50 |
|---|---|
| Airport | Eppley Airfield (KOMA) |
| Time | Latitude | Longitude | Altitude | Speed | Heading |
|---|---|---|---|---|---|
| 2026-04-26 04:19 | 41.97366 | -87.88996 | 671 ft | 0 kts | 359° |
| 2026-04-26 04:34 | 41.97341 | -87.88995 | 669 ft | 7 kts | 356° |
| 2026-04-26 04:34 | 41.97324 | -87.88992 | 670 ft | 2 kts | 337° |
| 2026-04-26 04:35 | 41.97316 | -87.88982 | 670 ft | 2 kts | 265° |
| 2026-04-26 04:35 | 41.97315 | -87.88968 | 668 ft | 2 kts | 270° |
| 2026-04-26 04:35 | 41.97315 | -87.88967 | 667 ft | 0 kts | 269° |
| 2026-04-26 04:36 | 41.97311 | -87.88983 | 669 ft | 8 kts | 246° |
| 2026-04-26 04:36 | 41.97271 | -87.89082 | 670 ft | 12 kts | 256° |
| 2026-04-26 04:37 | 41.97268 | -87.89212 | 670 ft | 18 kts | 270° |
| 2026-04-26 04:37 | 41.97222 | -87.89327 | 670 ft | 14 kts | 200° |
| 2026-04-26 04:37 | 41.97194 | -87.89432 | 670 ft | 13 kts | 272° |
| 2026-04-26 04:37 | 41.97228 | -87.89549 | 670 ft | 13 kts | 302° |
| 2026-04-26 04:38 | 41.97220 | -87.89656 | 670 ft | 13 kts | 243° |
| 2026-04-26 04:38 | 41.97152 | -87.89838 | 671 ft | 27 kts | 249° |
| 2026-04-26 04:38 | 41.97137 | -87.90042 | 670 ft | 21 kts | 269° |
| 2026-04-26 04:38 | 41.97066 | -87.90137 | 670 ft | 14 kts | 204° |
| 2026-04-26 04:39 | 41.97042 | -87.90251 | 670 ft | 13 kts | 269° |
| 2026-04-26 04:39 | 41.97043 | -87.90417 | 670 ft | 21 kts | 270° |
| 2026-04-26 04:39 | 41.97043 | -87.90608 | 670 ft | 19 kts | 270° |
| 2026-04-26 04:39 | 41.97040 | -87.90782 | 670 ft | 18 kts | 270° |
| 2026-04-26 04:40 | 41.97043 | -87.90998 | 671 ft | 30 kts | 270° |
| 2026-04-26 04:40 | 41.97040 | -87.91313 | 671 ft | 35 kts | 269° |
| 2026-04-26 04:40 | 41.97039 | -87.91638 | 672 ft | 35 kts | 270° |
| 2026-04-26 04:40 | 41.97040 | -87.91971 | 671 ft | 36 kts | 270° |
| 2026-04-26 04:41 | 41.97040 | -87.92314 | 671 ft | 37 kts | 269° |
| 2026-04-26 04:41 | 41.97039 | -87.92659 | 671 ft | 37 kts | 270° |
| 2026-04-26 04:41 | 41.97036 | -87.92992 | 673 ft | 26 kts | 270° |
| 2026-04-26 04:41 | 41.97024 | -87.93115 | 673 ft | 8 kts | 231° |
| 2026-04-26 04:42 | 41.96935 | -87.93132 | 678 ft | 23 kts | 182° |
| 2026-04-26 04:42 | 41.96901 | -87.93055 | 677 ft | 0 kts | 92° |
| 2026-04-26 04:42 | 41.96901 | -87.93043 | 677 ft | 10 kts | 90° |
| 2026-04-26 04:42 | 41.96902 | -87.92571 | 673 ft | 87 kts | 89° |
| 2026-04-26 04:43 | 41.96904 | -87.91487 | 675 ft | 142 kts | 90° |
| 2026-04-26 04:43 | 41.96884 | -87.90024 | 1019 ft | 159 kts | 90° |
| 2026-04-26 04:43 | 41.96864 | -87.88555 | 1849 ft | 157 kts | 90° |
| 2026-04-26 04:43 | 41.96869 | -87.87029 | 2341 ft | 173 kts | 90° |
| 2026-04-26 04:44 | 41.96868 | -87.85292 | 2693 ft | 199 kts | 94° |
| 2026-04-26 04:44 | 41.96363 | -87.83466 | 3118 ft | 227 kts | 128° |
| 2026-04-26 04:44 | 41.94947 | -87.82328 | 3650 ft | 256 kts | 166° |
| 2026-04-26 04:44 | 41.93137 | -87.82605 | 4475 ft | 275 kts | 201° |
| 2026-04-26 04:45 | 41.91656 | -87.84291 | 5361 ft | 290 kts | 236° |
| 2026-04-26 04:45 | 41.91040 | -87.86869 | 6291 ft | 296 kts | 267° |
| 2026-04-26 04:45 | 41.91162 | -87.89625 | 7249 ft | 297 kts | 279° |
| 2026-04-26 04:45 | 41.91502 | -87.92355 | 8228 ft | 297 kts | 280° |
| 2026-04-26 04:46 | 41.91853 | -87.95087 | 9213 ft | 298 kts | 279° |
| 2026-04-26 04:46 | 41.92207 | -87.97832 | 10164 ft | 300 kts | 278° |
| 2026-04-26 04:46 | 41.92432 | -88.00715 | 10511 ft | 322 kts | 271° |
| 2026-04-26 04:46 | 41.92451 | -88.03788 | 11072 ft | 334 kts | 267° |
| 2026-04-26 04:47 | 41.92372 | -88.06920 | 11867 ft | 338 kts | 266° |
| 2026-04-26 04:47 | 41.92267 | -88.10080 | 12681 ft | 340 kts | 265° |
| 2026-04-26 04:47 | 41.92170 | -88.13272 | 13495 ft | 344 kts | 266° |
| 2026-04-26 04:47 | 41.92098 | -88.16495 | 14248 ft | 347 kts | 266° |
| 2026-04-26 04:48 | 41.92016 | -88.23019 | 15653 ft | 352 kts | 267° |
| 2026-04-26 04:48 | 41.91990 | -88.26319 | 16349 ft | 355 kts | 267° |
| 2026-04-26 04:48 | 41.91963 | -88.29646 | 17058 ft | 358 kts | 267° |
| 2026-04-26 04:49 | 41.91932 | -88.32999 | 17758 ft | 360 kts | 267° |
| 2026-04-26 04:49 | 41.91897 | -88.36379 | 18431 ft | 364 kts | 267° |
| 2026-04-26 04:49 | 41.91861 | -88.39783 | 19017 ft | 366 kts | 267° |
| 2026-04-26 04:49 | 41.91821 | -88.43223 | 19598 ft | 369 kts | 267° |
| 2026-04-26 04:50 | 41.91781 | -88.46685 | 20164 ft | 372 kts | 268° |
| 2026-04-26 04:50 | 41.91741 | -88.50175 | 20740 ft | 375 kts | 268° |
| 2026-04-26 04:50 | 41.91699 | -88.53690 | 21321 ft | 378 kts | 268° |
| 2026-04-26 04:50 | 41.91655 | -88.57226 | 21876 ft | 381 kts | 268° |
| 2026-04-26 04:51 | 41.91609 | -88.60792 | 22422 ft | 383 kts | 268° |
| 2026-04-26 04:51 | 41.91562 | -88.64382 | 22970 ft | 386 kts | 268° |
| 2026-04-26 04:51 | 41.91514 | -88.67994 | 23510 ft | 389 kts | 269° |
| 2026-04-26 04:51 | 41.91464 | -88.71639 | 23967 ft | 391 kts | 269° |
| 2026-04-26 04:52 | 41.91412 | -88.75300 | 24414 ft | 394 kts | 269° |
| 2026-04-26 04:52 | 41.91358 | -88.78984 | 24858 ft | 396 kts | 269° |
| 2026-04-26 04:52 | 41.91296 | -88.82687 | 25296 ft | 398 kts | 268° |
| 2026-04-26 04:52 | 41.91202 | -88.86408 | 25728 ft | 400 kts | 268° |
| 2026-04-26 04:53 | 41.91084 | -88.90145 | 26168 ft | 401 kts | 267° |
| 2026-04-26 04:53 | 41.90952 | -88.93896 | 26606 ft | 403 kts | 267° |
| 2026-04-26 04:53 | 41.90816 | -88.97661 | 27040 ft | 405 kts | 267° |
| 2026-04-26 04:53 | 41.90681 | -89.01437 | 27474 ft | 406 kts | 267° |
| 2026-04-26 04:54 | 41.90547 | -89.05235 | 27907 ft | 408 kts | 267° |
| 2026-04-26 04:54 | 41.90417 | -89.09039 | 28333 ft | 409 kts | 268° |
| 2026-04-26 04:54 | 41.90287 | -89.12862 | 28756 ft | 411 kts | 268° |
| 2026-04-26 04:54 | 41.90157 | -89.16696 | 29168 ft | 412 kts | 268° |
| 2026-04-26 04:55 | 41.90027 | -89.20552 | 29580 ft | 414 kts | 267° |
| 2026-04-26 04:55 | 41.89808 | -89.24408 | 29980 ft | 416 kts | 264° |
| 2026-04-26 04:55 | 41.89479 | -89.28271 | 30329 ft | 417 kts | 263° |
| 2026-04-26 04:55 | 41.89079 | -89.32136 | 30654 ft | 419 kts | 262° |
| 2026-04-26 04:56 | 41.88647 | -89.36011 | 30977 ft | 420 kts | 262° |
| 2026-04-26 04:56 | 41.88213 | -89.39891 | 31293 ft | 421 kts | 262° |
| 2026-04-26 04:56 | 41.87797 | -89.43780 | 31606 ft | 422 kts | 263° |
| 2026-04-26 04:56 | 41.87403 | -89.47673 | 32032 ft | 420 kts | 263° |
| 2026-04-26 04:57 | 41.87025 | -89.51544 | 32506 ft | 417 kts | 264° |
| 2026-04-26 04:57 | 41.86653 | -89.55388 | 32984 ft | 414 kts | 264° |
| 2026-04-26 04:57 | 41.86283 | -89.59206 | 33459 ft | 411 kts | 264° |
| 2026-04-26 04:57 | 41.86036 | -89.61718 | 33776 ft | 410 kts | 264° |
| 2026-04-26 04:58 | 41.85661 | -89.65493 | 34218 ft | 407 kts | 264° |
| 2026-04-26 04:58 | 41.85286 | -89.69246 | 34589 ft | 405 kts | 264° |
| 2026-04-26 04:58 | 41.84913 | -89.72982 | 34923 ft | 404 kts | 264° |
| 2026-04-26 04:58 | 41.84561 | -89.76718 | 35235 ft | 403 kts | 265° |
| 2026-04-26 04:59 | 41.84233 | -89.80455 | 35538 ft | 403 kts | 265° |
| 2026-04-26 04:59 | 41.83918 | -89.84175 | 35834 ft | 402 kts | 265° |
| 2026-04-26 04:59 | 41.83602 | -89.87909 | 36032 ft | 402 kts | 265° |
| 2026-04-26 04:59 | 41.83282 | -89.91628 | 36075 ft | 402 kts | 265° |
| 2026-04-26 05:00 | 41.82624 | -89.99054 | 36078 ft | 401 kts | 265° |
| 2026-04-26 05:00 | 41.81958 | -90.06453 | 36065 ft | 400 kts | 265° |
| 2026-04-26 05:01 | 41.81281 | -90.13846 | 36060 ft | 399 kts | 265° |
| 2026-04-26 05:01 | 41.80601 | -90.21217 | 36194 ft | 399 kts | 265° |
| 2026-04-26 05:02 | 41.80261 | -90.24906 | 36499 ft | 398 kts | 265° |
| 2026-04-26 05:02 | 41.79924 | -90.28587 | 36785 ft | 397 kts | 265° |
| 2026-04-26 05:02 | 41.79588 | -90.32261 | 37055 ft | 397 kts | 265° |
| 2026-04-26 05:02 | 41.79250 | -90.35926 | 37310 ft | 397 kts | 265° |
| 2026-04-26 05:03 | 41.78908 | -90.39590 | 37572 ft | 396 kts | 265° |
| 2026-04-26 05:03 | 41.78563 | -90.43249 | 37837 ft | 395 kts | 265° |
| 2026-04-26 05:03 | 41.78219 | -90.46906 | 38025 ft | 396 kts | 265° |
| 2026-04-26 05:03 | 41.77875 | -90.50561 | 38066 ft | 395 kts | 265° |
| 2026-04-26 05:04 | 41.77186 | -90.57852 | 38059 ft | 394 kts | 264° |
| 2026-04-26 05:04 | 41.76485 | -90.65136 | 38050 ft | 394 kts | 264° |
| 2026-04-26 05:05 | 41.75789 | -90.72408 | 38057 ft | 394 kts | 264° |
| 2026-04-26 05:05 | 41.75089 | -90.79675 | 38064 ft | 393 kts | 264° |
| 2026-04-26 05:06 | 41.74381 | -90.86939 | 38063 ft | 394 kts | 264° |
| 2026-04-26 05:06 | 41.73669 | -90.94208 | 38059 ft | 394 kts | 264° |
| 2026-04-26 05:07 | 41.72956 | -91.01475 | 38050 ft | 394 kts | 264° |
| 2026-04-26 05:07 | 41.72230 | -91.08740 | 38046 ft | 394 kts | 264° |
| 2026-04-26 05:08 | 41.71504 | -91.16002 | 38045 ft | 394 kts | 264° |
| 2026-04-26 05:08 | 41.70772 | -91.23265 | 38040 ft | 394 kts | 264° |
| 2026-04-26 05:09 | 41.70033 | -91.30544 | 38043 ft | 395 kts | 264° |
| 2026-04-26 05:09 | 41.69287 | -91.37822 | 38047 ft | 395 kts | 264° |
| 2026-04-26 05:10 | 41.68536 | -91.45149 | 38044 ft | 395 kts | 264° |
| 2026-04-26 05:10 | 41.67789 | -91.52419 | 38048 ft | 395 kts | 264° |
| 2026-04-26 05:11 | 41.67039 | -91.59688 | 38047 ft | 394 kts | 264° |
| 2026-04-26 05:11 | 41.66285 | -91.66944 | 38045 ft | 394 kts | 264° |
| 2026-04-26 05:12 | 41.65523 | -91.74196 | 38044 ft | 394 kts | 264° |
| 2026-04-26 05:12 | 41.64760 | -91.81443 | 38041 ft | 394 kts | 264° |
| 2026-04-26 05:13 | 41.63983 | -91.88683 | 38037 ft | 393 kts | 264° |
| 2026-04-26 05:13 | 41.63205 | -91.95920 | 38032 ft | 393 kts | 264° |
| 2026-04-26 05:14 | 41.62427 | -92.03147 | 38028 ft | 393 kts | 264° |
| 2026-04-26 05:14 | 41.61647 | -92.10376 | 38027 ft | 393 kts | 264° |
| 2026-04-26 05:15 | 41.60863 | -92.17591 | 38026 ft | 392 kts | 264° |
| 2026-04-26 05:15 | 41.60072 | -92.24799 | 38021 ft | 392 kts | 263° |
| 2026-04-26 05:16 | 41.59272 | -92.32009 | 38025 ft | 392 kts | 263° |
| 2026-04-26 05:16 | 41.58473 | -92.39204 | 38036 ft | 391 kts | 263° |
| 2026-04-26 05:17 | 41.57670 | -92.46393 | 38039 ft | 391 kts | 263° |
| 2026-04-26 05:17 | 41.56865 | -92.53565 | 38044 ft | 390 kts | 263° |
| 2026-04-26 05:18 | 41.56056 | -92.60734 | 38043 ft | 390 kts | 263° |
| 2026-04-26 05:18 | 41.55247 | -92.67871 | 38043 ft | 389 kts | 263° |
| 2026-04-26 05:19 | 41.54428 | -92.75006 | 38043 ft | 389 kts | 263° |
| 2026-04-26 05:19 | 41.53606 | -92.82128 | 38027 ft | 388 kts | 263° |
| 2026-04-26 05:20 | 41.52782 | -92.89238 | 38028 ft | 387 kts | 263° |
| 2026-04-26 05:20 | 41.51953 | -92.96329 | 38027 ft | 386 kts | 263° |
| 2026-04-26 05:21 | 41.51135 | -93.03363 | 38026 ft | 386 kts | 263° |
| 2026-04-26 05:21 | 41.50310 | -93.10428 | 38017 ft | 385 kts | 263° |
| 2026-04-26 05:22 | 41.49478 | -93.17488 | 38016 ft | 385 kts | 263° |
| 2026-04-26 05:22 | 41.48640 | -93.24534 | 38007 ft | 385 kts | 263° |
| 2026-04-26 05:23 | 41.47794 | -93.31622 | 38004 ft | 384 kts | 263° |
| 2026-04-26 05:23 | 41.46946 | -93.38657 | 37872 ft | 384 kts | 263° |
| 2026-04-26 05:24 | 41.46522 | -93.42164 | 37597 ft | 383 kts | 263° |
| 2026-04-26 05:24 | 41.46098 | -93.45667 | 37323 ft | 382 kts | 263° |
| 2026-04-26 05:24 | 41.45674 | -93.49163 | 37060 ft | 383 kts | 263° |
| 2026-04-26 05:24 | 41.45249 | -93.52669 | 36786 ft | 383 kts | 263° |
| 2026-04-26 05:25 | 41.44821 | -93.56168 | 36523 ft | 383 kts | 263° |
| 2026-04-26 05:25 | 41.44391 | -93.59674 | 36263 ft | 383 kts | 263° |
| 2026-04-26 05:25 | 41.43968 | -93.63181 | 36006 ft | 383 kts | 265° |
| 2026-04-26 05:25 | 41.43858 | -93.66691 | 35751 ft | 379 kts | 274° |
| 2026-04-26 05:26 | 41.44060 | -93.70185 | 35486 ft | 377 kts | 275° |
| 2026-04-26 05:26 | 41.44264 | -93.73649 | 35007 ft | 373 kts | 275° |
| 2026-04-26 05:26 | 41.44460 | -93.77086 | 34496 ft | 371 kts | 275° |
| 2026-04-26 05:26 | 41.44648 | -93.80458 | 33974 ft | 369 kts | 275° |
| 2026-04-26 05:27 | 41.44838 | -93.83898 | 33406 ft | 366 kts | 275° |
| 2026-04-26 05:27 | 41.45022 | -93.87269 | 32900 ft | 362 kts | 275° |
| 2026-04-26 05:27 | 41.45200 | -93.90561 | 32403 ft | 359 kts | 275° |
| 2026-04-26 05:27 | 41.45381 | -93.93915 | 31894 ft | 357 kts | 275° |
| 2026-04-26 05:28 | 41.45558 | -93.97200 | 31401 ft | 354 kts | 275° |
| 2026-04-26 05:28 | 41.45733 | -94.00456 | 30934 ft | 351 kts | 274° |
| 2026-04-26 05:28 | 41.45906 | -94.03691 | 30442 ft | 349 kts | 274° |
| 2026-04-26 05:28 | 41.46080 | -94.06903 | 29974 ft | 346 kts | 274° |
| 2026-04-26 05:29 | 41.46251 | -94.10088 | 29485 ft | 343 kts | 274° |
| 2026-04-26 05:29 | 41.46420 | -94.13230 | 29046 ft | 338 kts | 274° |
| 2026-04-26 05:29 | 41.46584 | -94.16339 | 28611 ft | 334 kts | 274° |
| 2026-04-26 05:29 | 41.46744 | -94.19410 | 28185 ft | 330 kts | 274° |
| 2026-04-26 05:30 | 41.46901 | -94.22441 | 27780 ft | 326 kts | 274° |
| 2026-04-26 05:30 | 41.47057 | -94.25446 | 27362 ft | 323 kts | 274° |
| 2026-04-26 05:30 | 41.47207 | -94.28415 | 26947 ft | 320 kts | 273° |
| 2026-04-26 05:30 | 41.47356 | -94.31365 | 26536 ft | 317 kts | 273° |
| 2026-04-26 05:31 | 41.47504 | -94.34285 | 26116 ft | 315 kts | 273° |
| 2026-04-26 05:31 | 41.47652 | -94.37186 | 25699 ft | 313 kts | 273° |
| 2026-04-26 05:31 | 41.47797 | -94.40075 | 25265 ft | 312 kts | 272° |
| 2026-04-26 05:31 | 41.47942 | -94.42954 | 24833 ft | 311 kts | 272° |
| 2026-04-26 05:32 | 41.48083 | -94.45827 | 24393 ft | 310 kts | 272° |
| 2026-04-26 05:32 | 41.48224 | -94.48696 | 23946 ft | 310 kts | 272° |
| 2026-04-26 05:32 | 41.48366 | -94.51568 | 23491 ft | 310 kts | 271° |
| 2026-04-26 05:32 | 41.48511 | -94.54439 | 22997 ft | 310 kts | 271° |
| 2026-04-26 05:33 | 41.48655 | -94.57297 | 22546 ft | 308 kts | 271° |
| 2026-04-26 05:33 | 41.48794 | -94.60139 | 22113 ft | 306 kts | 271° |
| 2026-04-26 05:33 | 41.48931 | -94.62965 | 21685 ft | 305 kts | 271° |
| 2026-04-26 05:33 | 41.49068 | -94.65785 | 21264 ft | 304 kts | 271° |
| 2026-04-26 05:34 | 41.49201 | -94.68599 | 20841 ft | 304 kts | 271° |
| 2026-04-26 05:34 | 41.49333 | -94.71411 | 20419 ft | 304 kts | 271° |
| 2026-04-26 05:34 | 41.49464 | -94.74228 | 19944 ft | 306 kts | 271° |
| 2026-04-26 05:34 | 41.49596 | -94.77066 | 19483 ft | 307 kts | 271° |
| 2026-04-26 05:35 | 41.49730 | -94.79908 | 19102 ft | 307 kts | 271° |
| 2026-04-26 05:35 | 41.49864 | -94.82738 | 18737 ft | 306 kts | 271° |
| 2026-04-26 05:35 | 41.49996 | -94.85574 | 18331 ft | 307 kts | 271° |
| 2026-04-26 05:35 | 41.50129 | -94.88419 | 17872 ft | 308 kts | 271° |
| 2026-04-26 05:36 | 41.50216 | -94.90306 | 17587 ft | 308 kts | 271° |
| 2026-04-26 05:36 | 41.50346 | -94.93157 | 17182 ft | 307 kts | 271° |
| 2026-04-26 05:36 | 41.50475 | -94.96002 | 16774 ft | 307 kts | 271° |
| 2026-04-26 05:36 | 41.50605 | -94.98843 | 16375 ft | 307 kts | 271° |
| 2026-04-26 05:37 | 41.50731 | -95.01683 | 15975 ft | 307 kts | 271° |
| 2026-04-26 05:37 | 41.50855 | -95.04519 | 15582 ft | 306 kts | 271° |
| 2026-04-26 05:37 | 41.50981 | -95.07350 | 15195 ft | 306 kts | 272° |
| 2026-04-26 05:37 | 41.51108 | -95.10187 | 14800 ft | 306 kts | 272° |
| 2026-04-26 05:38 | 41.51110 | -95.13020 | 14414 ft | 305 kts | 262° |
| 2026-04-26 05:38 | 41.50621 | -95.15761 | 14036 ft | 304 kts | 251° |
| 2026-04-26 05:38 | 41.50025 | -95.18455 | 13636 ft | 303 kts | 261° |
| 2026-04-26 05:38 | 41.49955 | -95.21269 | 13231 ft | 304 kts | 269° |
| 2026-04-26 05:39 | 41.49979 | -95.24080 | 12817 ft | 303 kts | 269° |
| 2026-04-26 05:39 | 41.50006 | -95.26890 | 12407 ft | 303 kts | 269° |
| 2026-04-26 05:39 | 41.50036 | -95.29690 | 12001 ft | 302 kts | 269° |
| 2026-04-26 05:39 | 41.50068 | -95.32488 | 11600 ft | 301 kts | 268° |
| 2026-04-26 05:40 | 41.50099 | -95.35280 | 11203 ft | 301 kts | 268° |
| 2026-04-26 05:40 | 41.50127 | -95.38062 | 10810 ft | 300 kts | 268° |
| 2026-04-26 05:40 | 41.50152 | -95.40843 | 10422 ft | 299 kts | 268° |
| 2026-04-26 05:40 | 41.50176 | -95.43612 | 10040 ft | 298 kts | 267° |
| 2026-04-26 05:41 | 41.50198 | -95.46369 | 9631 ft | 297 kts | 267° |
| 2026-04-26 05:41 | 41.50218 | -95.49118 | 9205 ft | 296 kts | 266° |
| 2026-04-26 05:41 | 41.50239 | -95.51855 | 8790 ft | 294 kts | 266° |
| 2026-04-26 05:41 | 41.50261 | -95.54572 | 8387 ft | 293 kts | 266° |
| 2026-04-26 05:42 | 41.50282 | -95.57280 | 7981 ft | 291 kts | 266° |
| 2026-04-26 05:42 | 41.50303 | -95.59977 | 7574 ft | 290 kts | 266° |
| 2026-04-26 05:42 | 41.50322 | -95.62652 | 7204 ft | 287 kts | 266° |
| 2026-04-26 05:42 | 41.50342 | -95.65278 | 6845 ft | 280 kts | 266° |
| 2026-04-26 05:43 | 41.50360 | -95.67847 | 6303 ft | 273 kts | 266° |
| 2026-04-26 05:43 | 41.50377 | -95.70341 | 5855 ft | 265 kts | 266° |
| 2026-04-26 05:43 | 41.50392 | -95.72792 | 5575 ft | 258 kts | 265° |
| 2026-04-26 05:43 | 41.50411 | -95.75075 | 5509 ft | 236 kts | 265° |
| 2026-04-26 05:44 | 41.50424 | -95.77230 | 5426 ft | 231 kts | 265° |
| 2026-04-26 05:44 | 41.50432 | -95.79348 | 5328 ft | 224 kts | 264° |
| 2026-04-26 05:44 | 41.50443 | -95.81383 | 5227 ft | 214 kts | 264° |
| 2026-04-26 05:44 | 41.50452 | -95.83343 | 5138 ft | 209 kts | 264° |
| 2026-04-26 05:45 | 41.50333 | -95.85264 | 4834 ft | 210 kts | 249° |
| 2026-04-26 05:45 | 41.49747 | -95.86999 | 4557 ft | 199 kts | 229° |
| 2026-04-26 05:45 | 41.48814 | -95.88299 | 4377 ft | 190 kts | 211° |
| 2026-04-26 05:45 | 41.47662 | -95.89106 | 4190 ft | 186 kts | 194° |
| 2026-04-26 05:46 | 41.46399 | -95.89377 | 3973 ft | 184 kts | 178° |
| 2026-04-26 05:46 | 41.45115 | -95.89382 | 3742 ft | 185 kts | 178° |
| 2026-04-26 05:46 | 41.43815 | -95.89389 | 3500 ft | 188 kts | 178° |
| 2026-04-26 05:46 | 41.42522 | -95.89396 | 3273 ft | 184 kts | 178° |
| 2026-04-26 05:47 | 41.41256 | -95.89402 | 3009 ft | 180 kts | 177° |
| 2026-04-26 05:47 | 41.40035 | -95.89409 | 2788 ft | 169 kts | 177° |
| 2026-04-26 05:47 | 41.38891 | -95.89415 | 2555 ft | 159 kts | 176° |
| 2026-04-26 05:47 | 41.37803 | -95.89421 | 2350 ft | 154 kts | 175° |
| 2026-04-26 05:48 | 41.36724 | -95.89425 | 2137 ft | 157 kts | 177° |
| 2026-04-26 05:48 | 41.35624 | -95.89429 | 1910 ft | 158 kts | 178° |
| 2026-04-26 05:48 | 41.34519 | -95.89436 | 1677 ft | 158 kts | 177° |
| 2026-04-26 05:48 | 41.33431 | -95.89447 | 1454 ft | 155 kts | 177° |
| 2026-04-26 05:49 | 41.32362 | -95.89460 | 1236 ft | 152 kts | 176° |
| 2026-04-26 05:49 | 41.30320 | -95.89455 | 990 ft | 131 kts | 175° |
| 2026-04-26 05:49 | 41.29675 | -95.89445 | 990 ft | 50 kts | 182° |
| 2026-04-26 05:50 | 41.29368 | -95.89453 | 995 ft | 43 kts | 179° |
| 2026-04-26 05:50 | 41.29146 | -95.89477 | 995 ft | 27 kts | 211° |
| 2026-04-26 05:50 | 41.29172 | -95.89607 | 993 ft | 19 kts | 355° |
| 2026-04-26 05:50 | 41.29369 | -95.89604 | 990 ft | 38 kts | 1° |
| 2026-04-26 05:51 | 41.29629 | -95.89604 | 989 ft | 37 kts | 359° |
| 2026-04-26 05:51 | 41.29885 | -95.89608 | 990 ft | 36 kts | 359° |
| 2026-04-26 05:51 | 41.30028 | -95.89675 | 991 ft | 16 kts | 342° |
| 2026-04-26 05:51 | 41.30141 | -95.89705 | 992 ft | 9 kts | 328° |
| 2026-04-26 05:52 | 41.30180 | -95.89755 | 995 ft | 7 kts | 284° |
| 2026-04-26 05:52 | 41.30164 | -95.89809 | 992 ft | 5 kts | 234° |
| 2026-04-26 05:52 | 41.30163 | -95.89811 | 991 ft | 0 kts | 234° |